Time;durP1;ratioP1;P1;durP2;ratioP2;P2;SDS_P1;SDS_P2;PMS_P1;PMS_P2;Temp;Humidity;BMP_temperature;BMP_pressure;BME280_temperature;BME280_humidity;BME280_pressure;Samples;Min_cycle;Max_cycle;Signal;HPM_P1;HPM_P2
2022/11/21 00:00:51;;;;;;;11.38;4.85;;;12.40;99.90;;;;;;4984009;28;25059;-78
2022/11/21 00:03:16;;;;;;;14.27;5.07;;;12.40;99.90;;;;;;4985944;28;25158;-77
2022/11/21 00:05:44;;;;;;;17.13;7.18;;;12.20;99.90;;;;;;4989217;28;25157;-77
2022/11/21 00:08:12;;;;;;;24.02;10.63;;;12.00;99.90;;;;;;4994350;28;25146;-78
2022/11/21 00:10:39;;;;;;;27.77;11.07;;;11.60;99.90;;;;;;4985700;28;25084;-78
2022/11/21 00:13:05;;;;;;;29.63;12.25;;;11.40;99.90;;;;;;4991742;28;25147;-76
2022/11/21 00:15:32;;;;;;;31.00;12.57;;;11.10;99.90;;;;;;4986505;28;25078;-77
2022/11/21 00:18:00;;;;;;;26.13;12.10;;;11.10;99.90;;;;;;5000819;28;25170;-77
2022/11/21 00:20:26;;;;;;;32.10;14.60;;;11.00;99.90;;;;;;4988516;28;25118;-77
2022/11/21 00:22:51;;;;;;;30.80;13.38;;;11.00;99.90;;;;;;4998931;28;25064;-77
2022/11/21 00:25:17;;;;;;;28.13;13.73;;;10.90;99.90;;;;;;4993486;28;25117;-77
2022/11/21 00:27:43;;;;;;;34.13;15.18;;;11.00;99.90;;;;;;4984644;28;25071;-77
2022/11/21 00:30:10;;;;;;;28.60;14.38;;;11.00;99.90;;;;;;5000874;28;25121;-76
2022/11/21 00:32:35;;;;;;;32.17;14.70;;;11.20;99.90;;;;;;5007876;28;25146;-80
2022/11/21 00:35:01;;;;;;;32.53;15.82;;;11.00;99.90;;;;;;4994935;28;25162;-78
2022/11/21 00:37:27;;;;;;;36.38;15.45;;;11.20;99.90;;;;;;4993919;28;25100;-76
2022/11/21 00:39:53;;;;;;;27.70;14.20;;;11.40;99.90;;;;;;4998171;28;25142;-77
2022/11/21 00:42:18;;;;;;;35.03;14.40;;;11.50;99.90;;;;;;5000629;28;25060;-78
2022/11/21 00:44:44;;;;;;;34.55;14.95;;;11.50;99.90;;;;;;4994601;28;25095;-77
2022/11/21 00:47:09;;;;;;;30.60;15.50;;;11.60;99.90;;;;;;4988869;28;25119;-79
2022/11/21 00:49:35;;;;;;;33.50;14.35;;;11.70;99.90;;;;;;4985626;28;25103;-79
2022/11/21 00:52:01;;;;;;;32.58;14.48;;;11.50;99.90;;;;;;4991691;28;25068;-78
2022/11/21 00:54:26;;;;;;;29.60;14.57;;;11.60;99.90;;;;;;4984072;28;25111;-78
2022/11/21 00:56:52;;;;;;;31.02;15.35;;;11.80;99.90;;;;;;5001459;28;25079;-78
2022/11/21 00:59:18;;;;;;;34.88;15.60;;;11.80;99.90;;;;;;5011183;28;25086;-78
2022/11/21 01:01:43;;;;;;;27.85;13.60;;;11.80;99.90;;;;;;4989663;28;25064;-78
2022/11/21 01:04:09;;;;;;;22.80;12.52;;;11.90;99.90;;;;;;4987918;28;25104;-80
2022/11/21 01:06:37;;;;;;;30.75;13.23;;;11.80;99.90;;;;;;5011216;28;25081;-79
2022/11/21 01:09:03;;;;;;;35.78;14.82;;;11.70;99.90;;;;;;4991457;28;25149;-78
2022/11/21 01:11:29;;;;;;;30.42;14.32;;;11.30;99.90;;;;;;4986992;28;25071;-79
2022/11/21 01:13:55;;;;;;;33.78;15.82;;;11.00;99.90;;;;;;4990898;28;25074;-78
2022/11/21 01:16:23;;;;;;;24.83;13.50;;;10.90;99.90;;;;;;4987185;28;25127;-78
2022/11/21 01:18:49;;;;;;;29.42;14.18;;;10.80;99.90;;;;;;5003467;28;25080;-78
2022/11/21 01:21:21;;;;;;;28.65;15.27;;;10.80;99.90;;;;;;4995266;28;25132;-78
2022/11/21 01:23:47;;;;;;;37.95;15.77;;;10.70;99.90;;;;;;4995949;28;25055;-77
2022/11/21 01:26:15;;;;;;;37.80;15.40;;;10.60;99.90;;;;;;4989251;28;25057;-78
2022/11/21 01:28:41;;;;;;;31.85;14.05;;;10.70;99.90;;;;;;4997816;28;25083;-78
2022/11/21 01:31:12;;;;;;;34.38;15.13;;;10.70;99.90;;;;;;4993433;28;25064;-78
2022/11/21 01:33:39;;;;;;;34.08;15.52;;;11.00;99.90;;;;;;4982753;28;25092;-78
2022/11/21 01:36:14;;;;;;;45.03;17.00;;;10.90;99.90;;;;;;4992322;28;25085;-79
2022/11/21 01:38:41;;;;;;;43.05;17.70;;;11.00;99.90;;;;;;4991405;28;25069;-78
2022/11/21 01:41:08;;;;;;;36.70;17.30;;;10.50;99.90;;;;;;4999635;28;25102;-79
2022/11/21 01:43:35;;;;;;;42.10;17.90;;;10.50;99.90;;;;;;4997278;28;25132;-76
2022/11/21 01:46:09;;;;;;;46.42;18.23;;;10.30;99.90;;;;;;4992145;28;25122;-79
2022/11/21 01:48:50;;;;;;;52.53;21.15;;;10.40;99.90;;;;;;4995420;28;25062;-78
2022/11/21 01:51:21;;;;;;;50.90;20.38;;;10.10;99.90;;;;;;4996112;28;25046;-79
2022/11/21 01:53:57;;;;;;;48.53;21.07;;;10.00;99.90;;;;;;4994990;28;25061;-78
2022/11/21 01:56:24;;;;;;;51.10;22.60;;;9.90;99.90;;;;;;4996967;28;25107;-79
2022/11/21 01:58:52;;;;;;;58.25;21.55;;;9.80;99.90;;;;;;4997342;28;25057;-78
2022/11/21 02:01:18;;;;;;;58.03;23.73;;;10.10;99.90;;;;;;4987732;28;25088;-77
2022/11/21 02:03:46;;;;;;;55.17;22.83;;;9.80;99.90;;;;;;4987696;28;25100;-79
2022/11/21 02:06:12;;;;;;;72.35;24.30;;;10.00;99.90;;;;;;4994182;28;25119;-77
2022/11/21 02:08:39;;;;;;;67.90;25.45;;;10.20;99.90;;;;;;5000027;28;25053;-78
2022/11/21 02:11:07;;;;;;;72.93;24.38;;;10.20;99.90;;;;;;5011865;28;25065;-78
2022/11/21 02:13:33;;;;;;;54.67;22.30;;;10.20;99.90;;;;;;5010676;28;25126;-79
2022/11/21 02:15:59;;;;;;;69.78;26.83;;;10.50;99.90;;;;;;5000304;28;25081;-78
2022/11/21 02:18:24;;;;;;;74.30;25.80;;;10.60;99.90;;;;;;5000575;28;25071;-76
2022/11/21 02:20:56;;;;;;;61.28;23.00;;;10.60;99.90;;;;;;4986390;28;25095;-78
2022/11/21 02:23:25;;;;;;;64.22;23.65;;;10.60;99.90;;;;;;4987139;28;25081;-78
2022/11/21 02:25:51;;;;;;;61.33;23.48;;;10.80;99.90;;;;;;4997012;28;25059;-78
2022/11/21 02:28:19;;;;;;;62.88;24.15;;;11.00;99.90;;;;;;4983845;28;25064;-79
2022/11/21 02:30:45;;;;;;;54.53;23.00;;;11.10;99.90;;;;;;4986328;28;25088;-78
2022/11/21 02:33:12;;;;;;;46.80;19.23;;;10.90;99.90;;;;;;4999441;28;25081;-76
2022/11/21 02:35:37;;;;;;;55.97;21.85;;;11.00;99.90;;;;;;4989937;28;25062;-78
2022/11/21 02:38:26;;;;;;;50.28;21.88;;;11.20;99.90;;;;;;4992487;28;25079;-77
2022/11/21 02:40:59;;;;;;;52.75;21.17;;;11.00;99.90;;;;;;4994693;28;25072;-78
2022/11/21 02:43:29;;;;;;;60.97;22.13;;;10.60;99.90;;;;;;4997909;28;25099;-79
2022/11/21 02:45:55;;;;;;;44.97;19.15;;;10.60;99.90;;;;;;5006527;28;25124;-78
2022/11/21 02:48:21;;;;;;;55.30;22.05;;;10.40;99.90;;;;;;4971683;28;25147;-77
2022/11/21 02:50:47;;;;;;;55.75;24.13;;;10.50;99.90;;;;;;4988137;28;25079;-79
2022/11/21 02:53:15;;;;;;;55.85;22.17;;;10.40;99.90;;;;;;4988882;28;25067;-78
2022/11/21 02:55:42;;;;;;;54.92;22.13;;;10.70;99.90;;;;;;4990798;28;24999;-76
2022/11/21 02:58:08;;;;;;;73.20;26.13;;;10.80;99.90;;;;;;4992973;28;25065;-76
2022/11/21 03:00:36;;;;;;;48.03;20.90;;;11.00;99.90;;;;;;5002366;28;25054;-77
2022/11/21 03:03:01;;;;;;;68.78;24.80;;;10.90;99.90;;;;;;4987571;28;25073;-77
2022/11/21 03:05:27;;;;;;;76.60;26.13;;;11.00;99.90;;;;;;4990718;28;25124;-78
2022/11/21 03:07:53;;;;;;;104.88;28.77;;;10.90;99.90;;;;;;4989739;28;25098;-78
2022/11/21 03:10:19;;;;;;;66.55;21.73;;;10.70;99.90;;;;;;4999221;28;25136;-77
2022/11/21 03:12:45;;;;;;;102.25;28.63;;;10.90;99.90;;;;;;4985000;28;25072;-79
2022/11/21 03:15:13;;;;;;;127.43;33.13;;;10.60;99.90;;;;;;5007867;28;25150;-77
2022/11/21 03:17:39;;;;;;;143.00;31.38;;;10.70;99.90;;;;;;4993019;28;25059;-80
2022/11/21 03:20:05;;;;;;;130.48;28.50;;;10.60;99.90;;;;;;5012405;28;25105;-77
2022/11/21 03:22:32;;;;;;;162.65;29.88;;;10.80;99.90;;;;;;4985115;28;25076;-79
2022/11/21 03:24:58;;;;;;;249.50;43.17;;;10.90;99.90;;;;;;4984023;28;25072;-77
2022/11/21 03:27:23;;;;;;;145.88;29.65;;;10.80;99.90;;;;;;4990864;28;25055;-78
2022/11/21 03:29:49;;;;;;;93.20;20.98;;;11.00;99.90;;;;;;5012523;28;25050;-77
2022/11/21 03:32:15;;;;;;;217.52;36.28;;;10.70;99.90;;;;;;5004572;28;25071;-78
2022/11/21 03:34:41;;;;;;;241.98;38.70;;;10.80;99.90;;;;;;5000078;28;25074;-78
2022/11/21 03:37:06;;;;;;;109.47;24.25;;;10.80;99.90;;;;;;5003642;28;25082;-78
2022/11/21 03:39:32;;;;;;;110.00;22.65;;;10.80;99.90;;;;;;4996892;28;25050;-77
2022/11/21 03:41:58;;;;;;;205.23;37.67;;;10.70;99.90;;;;;;5002974;28;25108;-81
2022/11/21 03:44:24;;;;;;;121.35;24.63;;;10.80;99.90;;;;;;4986780;28;25070;-78
2022/11/21 03:46:49;;;;;;;250.32;38.63;;;10.90;99.90;;;;;;4990290;28;25078;-77
2022/11/21 03:49:15;;;;;;;201.50;31.35;;;10.90;99.90;;;;;;4989174;28;25074;-79
2022/11/21 03:51:42;;;;;;;118.80;25.83;;;10.80;99.90;;;;;;4996924;28;25123;-78
2022/11/21 03:54:08;;;;;;;153.48;29.30;;;10.80;99.90;;;;;;4985445;28;25111;-78
2022/11/21 03:56:34;;;;;;;151.13;27.05;;;10.80;99.90;;;;;;4982518;28;25111;-79
2022/11/21 03:59:00;;;;;;;116.57;22.83;;;10.70;99.90;;;;;;4985223;28;25141;-79
2022/11/21 04:01:26;;;;;;;179.77;29.70;;;10.80;99.90;;;;;;4991137;28;25051;-80
2022/11/21 04:03:52;;;;;;;96.35;21.58;;;10.60;99.90;;;;;;4995491;28;25104;-80
2022/11/21 04:06:19;;;;;;;118.13;22.90;;;10.60;99.90;;;;;;4984650;28;25113;-77
2022/11/21 04:08:45;;;;;;;189.05;30.35;;;10.30;99.90;;;;;;4988978;28;25088;-76
2022/11/21 04:11:12;;;;;;;200.07;33.75;;;10.40;99.90;;;;;;4983291;28;25086;-77
2022/11/21 04:13:37;;;;;;;107.57;22.08;;;10.30;99.90;;;;;;4981727;28;25083;-79
2022/11/21 04:16:03;;;;;;;206.63;37.55;;;10.30;99.90;;;;;;4981079;28;25120;-78
2022/11/21 04:18:29;;;;;;;128.65;27.42;;;10.30;99.90;;;;;;4991135;28;25050;-77
2022/11/21 04:21:04;;;;;;;131.63;26.55;;;10.40;99.90;;;;;;4989105;28;25061;-77
2022/11/21 04:23:29;;;;;;;149.07;26.58;;;10.40;99.90;;;;;;4987998;28;25094;-79
2022/11/21 04:25:55;;;;;;;76.13;21.08;;;10.40;99.90;;;;;;4981674;28;25127;-77
2022/11/21 04:28:21;;;;;;;97.68;22.90;;;10.40;99.90;;;;;;4986494;28;25093;-78
2022/11/21 04:30:47;;;;;;;124.00;24.42;;;10.40;99.90;;;;;;4989139;28;25068;-77
2022/11/21 04:33:14;;;;;;;95.93;21.67;;;10.30;99.90;;;;;;5006428;28;25040;-79
2022/11/21 04:35:42;;;;;;;86.20;21.40;;;10.40;99.90;;;;;;4998273;28;25077;-79
2022/11/21 04:38:09;;;;;;;122.63;25.42;;;10.70;99.90;;;;;;4995665;28;25077;-78
2022/11/21 04:40:35;;;;;;;71.70;20.02;;;10.30;99.90;;;;;;4992986;28;25067;-80
2022/11/21 04:43:01;;;;;;;100.72;22.85;;;10.30;99.90;;;;;;4989214;28;25075;-78
2022/11/21 04:45:27;;;;;;;86.18;24.85;;;10.30;99.90;;;;;;4990712;28;25056;-79
2022/11/21 04:47:53;;;;;;;73.78;22.23;;;10.30;99.90;;;;;;4990304;28;25065;-77
2022/11/21 04:50:19;;;;;;;114.60;25.67;;;10.30;99.90;;;;;;4986811;28;25128;-80
2022/11/21 04:52:52;;;;;;;137.15;30.98;;;10.30;99.90;;;;;;4982838;28;25066;-79
2022/11/21 04:55:18;;;;;;;;;;;10.30;99.90;;;;;;4989933;28;26073;-79
2022/11/21 04:57:44;;;;;;;142.73;29.33;;;10.10;99.90;;;;;;4995163;28;24064;-79
2022/11/21 05:00:11;;;;;;;110.45;25.83;;;10.10;99.90;;;;;;4986511;28;25052;-77
2022/11/21 05:02:36;;;;;;;124.35;25.98;;;10.10;99.90;;;;;;4991213;28;25081;-78
2022/11/21 05:05:02;;;;;;;185.63;30.88;;;10.30;99.90;;;;;;4986682;28;25066;-79
2022/11/21 05:07:27;;;;;;;174.40;29.52;;;10.20;99.90;;;;;;4991964;28;25091;-78
2022/11/21 05:09:53;;;;;;;142.52;27.92;;;10.10;99.90;;;;;;4986833;28;25100;-79
2022/11/21 05:15:03;;;;;;;150.63;29.08;;;10.10;99.90;;;;;;4997034;28;25119;-79
2022/11/21 05:17:29;;;;;;;96.07;21.35;;;10.00;99.90;;;;;;4983437;28;25144;-79
2022/11/21 05:19:55;;;;;;;215.30;33.42;;;10.10;99.90;;;;;;4987705;28;25071;-79
2022/11/21 05:22:20;;;;;;;151.75;25.65;;;9.90;99.90;;;;;;4991241;28;25070;-77
2022/11/21 05:24:46;;;;;;;144.60;26.63;;;10.00;99.90;;;;;;4986995;28;25127;-78
2022/11/21 05:27:11;;;;;;;140.05;22.65;;;10.30;99.90;;;;;;4982081;28;25124;-78
2022/11/21 05:29:37;;;;;;;158.23;28.15;;;10.40;99.90;;;;;;4984565;28;25048;-78
2022/11/21 05:32:03;;;;;;;61.90;16.98;;;10.30;99.90;;;;;;4993194;28;25104;-77
2022/11/21 05:34:28;;;;;;;150.40;30.25;;;10.30;99.90;;;;;;4981256;28;25053;-77
2022/11/21 05:36:57;;;;;;;176.15;29.73;;;10.50;99.90;;;;;;4988341;28;25154;-78
2022/11/21 05:39:24;;;;;;;111.93;24.50;;;10.50;99.90;;;;;;4994585;28;25055;-78
2022/11/21 05:41:49;;;;;;;145.35;29.05;;;10.40;99.90;;;;;;4997192;28;25072;-77
2022/11/21 05:44:15;;;;;;;68.40;18.77;;;10.40;99.90;;;;;;4985256;28;25078;-79
2022/11/21 05:46:41;;;;;;;68.45;17.92;;;10.40;99.90;;;;;;4981699;28;25110;-78
2022/11/21 05:49:07;;;;;;;123.80;25.35;;;10.50;99.90;;;;;;5006662;28;25053;-77
2022/11/21 05:51:32;;;;;;;170.65;33.22;;;10.40;99.90;;;;;;4990573;28;25074;-77
2022/11/21 05:53:58;;;;;;;87.07;20.77;;;10.50;99.90;;;;;;4993374;28;25109;-78
2022/11/21 05:56:24;;;;;;;85.10;20.48;;;10.50;99.90;;;;;;4982882;28;25155;-77
2022/11/21 05:58:50;;;;;;;106.53;24.42;;;10.50;99.90;;;;;;4982841;28;25069;-77
2022/11/21 06:03:25;;;;;;;81.45;21.42;;;10.60;99.90;;;;;;4982941;28;25052;-79
2022/11/21 06:04:01;;;;;;;87.85;19.70;;;10.70;99.90;;;;;;4982868;28;25118;-79
2022/11/21 06:06:27;;;;;;;160.93;33.45;;;10.60;99.90;;;;;;4986043;28;25142;-78
2022/11/21 06:08:53;;;;;;;113.85;25.85;;;10.60;99.90;;;;;;4985686;28;25057;-77
2022/11/21 06:11:18;;;;;;;92.55;22.50;;;10.80;99.90;;;;;;4991459;28;25130;-78
2022/11/21 06:13:44;;;;;;;92.03;22.33;;;10.90;99.90;;;;;;4987542;28;25049;-77
2022/11/21 06:16:12;;;;;;;52.80;15.88;;;10.80;99.90;;;;;;4997865;28;25068;-78
2022/11/21 06:18:43;;;;;;;113.82;24.73;;;11.00;99.90;;;;;;4998271;28;25103;-78
2022/11/21 06:21:13;;;;;;;190.00;29.75;;;11.10;99.90;;;;;;4987672;28;25098;-78
2022/11/21 06:23:39;;;;;;;139.70;28.05;;;11.10;99.90;;;;;;4989138;28;25057;-76
2022/11/21 06:26:07;;;;;;;189.02;34.38;;;11.30;99.90;;;;;;4984343;28;25075;-77
2022/11/21 06:28:35;;;;;;;192.20;32.00;;;11.00;99.90;;;;;;4987982;28;25090;-77
2022/11/21 06:31:06;;;;;;;151.63;27.40;;;10.90;99.90;;;;;;4988704;28;25059;-78
2022/11/21 06:33:32;;;;;;;121.10;24.25;;;11.00;99.90;;;;;;4989884;28;25072;-78
2022/11/21 06:36:03;;;;;;;121.15;26.15;;;11.00;99.90;;;;;;4985994;28;25102;-77
2022/11/21 06:38:29;;;;;;;153.07;27.48;;;10.90;99.90;;;;;;4985322;28;25081;-79
2022/11/21 06:40:54;;;;;;;62.10;16.10;;;10.70;99.90;;;;;;4984964;28;25069;-78
2022/11/21 06:43:20;;;;;;;70.18;18.50;;;10.90;99.90;;;;;;4984093;28;25177;-78
2022/11/21 06:45:45;;;;;;;55.33;17.15;;;11.00;99.90;;;;;;4988363;28;25080;-77
2022/11/21 06:48:11;;;;;;;72.90;19.52;;;10.90;99.90;;;;;;4999121;28;25068;-80
2022/11/21 06:50:37;;;;;;;83.03;20.23;;;10.90;99.90;;;;;;4998794;28;25078;-76
2022/11/21 06:53:03;;;;;;;68.43;21.17;;;10.80;99.90;;;;;;4992144;28;25092;-79
2022/11/21 06:55:30;;;;;;;54.28;16.88;;;11.10;99.90;;;;;;4987131;28;25131;-80
2022/11/21 06:57:59;;;;;;;31.35;13.65;;;11.20;99.90;;;;;;4985416;28;25067;-78
2022/11/21 07:00:27;;;;;;;35.95;13.35;;;11.10;99.90;;;;;;4988930;28;25067;-79
2022/11/21 07:02:53;;;;;;;46.70;16.00;;;11.20;99.90;;;;;;4983353;28;25141;-79
2022/11/21 07:05:19;;;;;;;41.42;15.40;;;11.60;99.90;;;;;;4984166;28;25069;-79
2022/11/21 07:07:45;;;;;;;25.95;11.68;;;11.50;99.90;;;;;;5002697;28;25062;-77
2022/11/21 07:10:10;;;;;;;26.02;12.52;;;11.80;99.90;;;;;;4984848;28;25073;-78
2022/11/21 07:15:20;;;;;;;34.58;12.95;;;11.60;99.90;;;;;;4978289;28;25131;-79
2022/11/21 07:17:46;;;;;;;22.27;10.98;;;11.70;99.90;;;;;;4988936;28;25054;-80
2022/11/21 07:20:12;;;;;;;24.45;11.57;;;11.50;99.90;;;;;;4988285;28;25153;-76
2022/11/21 07:22:38;;;;;;;29.95;12.10;;;11.80;99.90;;;;;;4982026;28;25063;-78
2022/11/21 07:25:04;;;;;;;21.85;10.55;;;11.80;99.90;;;;;;4985255;28;25112;-77
2022/11/21 07:27:29;;;;;;;28.08;12.23;;;12.00;99.90;;;;;;4997242;28;25073;-79
2022/11/21 07:29:57;;;;;;;24.30;11.10;;;11.90;99.90;;;;;;5008127;28;25099;-78
2022/11/21 07:32:26;;;;;;;30.45;11.93;;;11.70;99.90;;;;;;5003719;28;25058;-76
2022/11/21 07:34:52;;;;;;;24.42;9.48;;;11.60;99.90;;;;;;4993546;28;25135;-78
2022/11/21 07:37:18;;;;;;;18.63;8.57;;;11.80;99.90;;;;;;5020427;28;25105;-77
2022/11/21 07:39:44;;;;;;;21.35;9.73;;;11.50;99.90;;;;;;5013416;28;25061;-77
2022/11/21 07:42:09;;;;;;;25.58;11.13;;;11.70;99.90;;;;;;5000646;28;25100;-79
2022/11/21 07:44:35;;;;;;;18.58;8.65;;;11.80;99.90;;;;;;4991572;28;25094;-78
2022/11/21 07:47:01;;;;;;;22.50;9.68;;;11.80;99.90;;;;;;4998139;28;25058;-78
2022/11/21 07:49:27;;;;;;;22.30;10.00;;;11.80;99.90;;;;;;4988685;28;25050;-78
2022/11/21 07:51:52;;;;;;;17.17;8.63;;;11.70;99.90;;;;;;4993011;28;25159;-77
2022/11/21 07:54:18;;;;;;;29.40;10.77;;;11.70;99.90;;;;;;4983623;28;25065;-78
2022/11/21 07:56:43;;;;;;;19.90;9.55;;;11.60;99.90;;;;;;4980346;28;25152;-78
2022/11/21 07:59:09;;;;;;;21.67;10.65;;;11.50;99.90;;;;;;4982077;28;25154;-78
2022/11/21 08:01:35;;;;;;;20.10;8.35;;;11.60;99.90;;;;;;4984120;28;25133;-77
2022/11/21 08:04:00;;;;;;;22.98;8.60;;;11.50;99.90;;;;;;4984231;28;25071;-78
2022/11/21 08:06:26;;;;;;;17.05;8.20;;;11.60;99.90;;;;;;4984666;28;25105;-79
2022/11/21 08:08:54;;;;;;;19.70;7.82;;;11.50;99.90;;;;;;4994967;28;25069;-79
2022/11/21 08:11:20;;;;;;;21.85;9.90;;;11.50;99.90;;;;;;5002676;28;25081;-78
2022/11/21 08:13:46;;;;;;;17.58;8.95;;;11.40;99.90;;;;;;4987496;28;25123;-77
2022/11/21 08:16:12;;;;;;;18.40;8.85;;;11.40;99.90;;;;;;4994090;28;25127;-79
2022/11/21 08:18:38;;;;;;;28.25;10.85;;;11.30;99.90;;;;;;4990968;28;25064;-79
2022/11/21 08:21:04;;;;;;;19.80;8.35;;;11.40;99.90;;;;;;5003656;28;25096;-79
2022/11/21 08:23:30;;;;;;;22.48;9.25;;;11.50;99.90;;;;;;4995404;28;25090;-76
2022/11/21 08:25:56;;;;;;;19.92;8.98;;;11.50;99.90;;;;;;4990632;28;25132;-77
2022/11/21 08:28:22;;;;;;;31.65;8.32;;;11.40;99.90;;;;;;4984091;28;25102;-77
2022/11/21 08:30:48;;;;;;;17.25;7.20;;;11.40;99.90;;;;;;4986838;28;25148;-77
2022/11/21 08:33:13;;;;;;;19.13;8.32;;;11.50;99.90;;;;;;4987529;28;25077;-75
2022/11/21 08:35:39;;;;;;;19.33;7.75;;;11.40;99.90;;;;;;4982152;28;25092;-77
2022/11/21 08:38:04;;;;;;;14.25;6.35;;;11.40;99.90;;;;;;4984575;28;25056;-76
2022/11/21 08:40:31;;;;;;;9.88;5.22;;;11.50;99.90;;;;;;4982400;28;25043;-78
2022/11/21 08:43:03;;;;;;;17.20;6.53;;;11.50;99.90;;;;;;4994681;28;25074;-78
2022/11/21 08:45:29;;;;;;;18.92;6.10;;;11.70;99.90;;;;;;4997730;28;25077;-80
2022/11/21 08:47:54;;;;;;;14.93;4.93;;;11.70;99.90;;;;;;4994783;28;25136;-79
2022/11/21 08:50:21;;;;;;;18.77;5.60;;;11.80;99.90;;;;;;4998873;28;25110;-77
2022/11/21 08:52:47;;;;;;;13.32;5.53;;;11.80;99.90;;;;;;4998176;28;25073;-77
2022/11/21 08:55:13;;;;;;;20.90;5.93;;;11.90;99.90;;;;;;4998453;28;25173;-79
2022/11/21 08:57:40;;;;;;;16.75;6.82;;;11.70;99.90;;;;;;4983866;28;25135;-79
2022/11/21 09:00:08;;;;;;;19.00;6.38;;;12.00;99.90;;;;;;4988039;28;25069;-78
2022/11/21 09:02:34;;;;;;;21.35;7.38;;;12.00;99.90;;;;;;4979999;28;25082;-78
2022/11/21 09:05:00;;;;;;;16.95;7.88;;;11.90;99.90;;;;;;4985963;28;25052;-78
2022/11/21 09:07:26;;;;;;;16.98;7.00;;;12.20;99.90;;;;;;4988709;28;25084;-76
2022/11/21 09:09:51;;;;;;;25.13;7.82;;;12.40;99.90;;;;;;4993241;28;25080;-78
2022/11/21 09:12:17;;;;;;;24.17;7.25;;;12.30;99.90;;;;;;4981357;28;25051;-76
2022/11/21 09:20:11;;;;;;;23.20;8.52;;;12.50;99.90;;;;;;4997753;28;25108;-76
2022/11/21 09:22:37;;;;;;;16.73;6.88;;;12.50;99.90;;;;;;5000044;28;25090;-76
2022/11/21 09:25:03;;;;;;;24.17;8.10;;;12.70;99.90;;;;;;4982883;28;25086;-77
2022/11/21 09:27:29;;;;;;;19.77;8.07;;;12.70;99.90;;;;;;4991784;28;25083;-77
2022/11/21 09:29:55;;;;;;;19.67;6.90;;;12.70;99.90;;;;;;4994122;28;25091;-77
2022/11/21 09:32:21;;;;;;;13.88;6.43;;;13.00;99.90;;;;;;4991180;28;25088;-76
2022/11/21 09:34:46;;;;;;;17.25;7.28;;;13.10;99.90;;;;;;4997562;28;25151;-75
2022/11/21 09:37:12;;;;;;;19.63;7.63;;;12.90;99.90;;;;;;4998450;28;25086;-76
2022/11/21 09:39:37;;;;;;;16.90;6.95;;;12.80;99.90;;;;;;4994881;28;25090;-76
2022/11/21 09:42:39;;;;;;;18.30;6.68;;;12.80;99.90;;;;;;5011996;28;25066;-77
2022/11/21 09:45:26;;;;;;;15.98;7.53;;;12.70;99.90;;;;;;5007057;28;25077;-76
2022/11/21 09:47:52;;;;;;;17.90;7.22;;;12.80;99.90;;;;;;5015923;28;25092;-77
2022/11/21 09:50:30;;;;;;;24.17;7.05;;;12.90;99.90;;;;;;5015350;28;25099;-75
2022/11/21 09:53:01;;;;;;;20.85;8.20;;;12.80;99.90;;;;;;5000333;28;25110;-76
2022/11/21 09:55:41;;;;;;;16.70;6.63;;;13.00;99.90;;;;;;4997643;28;25073;-77
2022/11/21 09:58:18;;;;;;;16.00;6.90;;;13.10;99.90;;;;;;4990716;28;25056;-76
2022/11/21 10:00:43;;;;;;;18.45;6.63;;;13.10;99.90;;;;;;4996070;28;25079;-76
2022/11/21 10:03:11;;;;;;;15.38;5.45;;;13.20;99.90;;;;;;4993644;28;25104;-77
2022/11/21 10:05:44;;;;;;;18.30;6.05;;;13.20;99.90;;;;;;4995502;28;25082;-76
2022/11/21 10:08:23;;;;;;;22.05;6.63;;;13.30;99.90;;;;;;4990975;28;25077;-75
2022/11/21 10:10:59;;;;;;;13.65;5.55;;;13.20;99.90;;;;;;4987775;28;25057;-76
2022/11/21 10:13:54;;;;;;;18.20;5.45;;;12.90;99.90;;;;;;4986901;28;25076;-75
2022/11/21 10:16:50;;;;;;;12.85;5.95;;;12.70;99.90;;;;;;4988550;28;25075;-76
2022/11/21 10:19:30;;;;;;;13.77;5.30;;;12.60;99.90;;;;;;4994515;28;25106;-75
2022/11/21 10:22:05;;;;;;;13.75;5.40;;;12.70;99.90;;;;;;4989448;28;25058;-76
2022/11/21 10:24:47;;;;;;;12.07;5.90;;;12.50;99.90;;;;;;4988414;28;25124;-76
2022/11/21 10:27:17;;;;;;;19.90;6.85;;;12.50;99.90;;;;;;4983074;28;25143;-75
2022/11/21 10:29:53;;;;;;;17.90;5.43;;;12.50;99.90;;;;;;5011373;28;25071;-75
2022/11/21 10:32:26;;;;;;;17.42;7.00;;;12.40;99.90;;;;;;4996992;28;25284;-76
2022/11/21 10:34:56;;;;;;;11.90;5.60;;;12.60;99.90;;;;;;4992470;28;25078;-76
2022/11/21 10:37:30;;;;;;;12.40;5.75;;;12.40;99.90;;;;;;4993458;28;25042;-76
2022/11/21 10:40:06;;;;;;;19.35;5.43;;;12.40;99.90;;;;;;4990148;28;25064;-76
2022/11/21 10:42:39;;;;;;;12.27;5.32;;;12.30;99.90;;;;;;4982002;28;25136;-76
2022/11/21 10:45:17;;;;;;;14.95;5.30;;;12.30;99.90;;;;;;4985378;28;25169;-75
2022/11/21 10:47:48;;;;;;;13.18;4.65;;;12.20;99.90;;;;;;4989007;28;25149;-76
2022/11/21 10:50:41;;;;;;;15.98;5.38;;;12.10;99.90;;;;;;4999556;28;25061;-76
2022/11/21 10:56:18;;;;;;;8.43;4.10;;;12.10;99.90;;;;;;4988949;28;25078;-76
2022/11/21 10:58:47;;;;;;;8.75;3.95;;;12.10;99.90;;;;;;4997962;28;25099;-75
2022/11/21 11:01:33;;;;;;;10.25;3.58;;;12.20;99.90;;;;;;4992424;28;25103;-76
2022/11/21 11:04:08;;;;;;;16.13;3.85;;;12.40;99.90;;;;;;5002465;28;25190;-75
2022/11/21 11:06:35;;;;;;;8.20;3.85;;;12.70;99.90;;;;;;4998835;28;25101;-75
2022/11/21 11:09:01;;;;;;;11.40;4.07;;;12.60;99.90;;;;;;5015218;28;25102;-75
2022/11/21 11:11:27;;;;;;;11.70;3.58;;;12.60;99.90;;;;;;5003381;28;25079;-75
2022/11/21 11:14:03;;;;;;;11.48;3.35;;;12.40;99.90;;;;;;5001325;28;25064;-75
2022/11/21 11:16:31;;;;;;;11.38;3.28;;;12.10;99.90;;;;;;5019776;28;25153;-76
2022/11/21 11:19:01;;;;;;;11.75;3.63;;;12.30;99.90;;;;;;4992825;28;25058;-76
2022/11/21 11:21:28;;;;;;;6.25;2.63;;;12.60;99.90;;;;;;5000038;28;25054;-75
2022/11/21 11:24:26;;;;;;;6.47;2.75;;;12.20;99.90;;;;;;5002057;28;25142;-75
2022/11/21 11:27:01;;;;;;;8.63;3.50;;;12.40;99.90;;;;;;4995059;28;25073;-76
2022/11/21 11:29:34;;;;;;;10.82;2.83;;;12.90;99.90;;;;;;4999188;28;25057;-76
2022/11/21 11:32:15;;;;;;;9.98;2.85;;;12.70;99.90;;;;;;4998010;28;25108;-75
2022/11/21 11:34:54;;;;;;;12.48;3.15;;;12.20;99.90;;;;;;5001258;28;25074;-76
2022/11/21 11:37:33;;;;;;;7.88;3.35;;;12.20;99.90;;;;;;5001265;28;25051;-76
2022/11/21 11:40:25;;;;;;;7.25;2.88;;;12.00;99.90;;;;;;4988342;28;25124;-76
2022/11/21 11:50:10;;;;;;;9.07;2.50;;;10.70;99.90;;;;;;4982646;28;25065;-75
2022/11/21 11:52:41;;;;;;;14.00;2.38;;;10.50;99.90;;;;;;4983684;28;25144;-75
2022/11/21 11:55:15;;;;;;;5.85;2.03;;;10.50;99.90;;;;;;4985846;28;25134;-79
2022/11/21 11:57:42;;;;;;;7.13;2.47;;;10.40;99.90;;;;;;4989357;28;25121;-78
2022/11/21 12:00:40;;;;;;;3.83;1.83;;;10.30;99.90;;;;;;4984419;28;25098;-77
2022/11/21 12:03:19;;;;;;;5.40;1.90;;;10.20;99.90;;;;;;4981685;28;25061;-78
2022/11/21 12:05:58;;;;;;;18.08;2.42;;;10.20;99.90;;;;;;4980943;28;25126;-78
2022/11/21 12:08:39;;;;;;;6.55;3.03;;;10.00;99.90;;;;;;4985020;28;25117;-78
2022/11/21 12:15:47;;;;;;;5.53;1.80;;;9.90;99.90;;;;;;4987617;28;25101;-78
2022/11/21 12:17:07;;;;;;;7.75;1.83;;;9.70;99.90;;;;;;4989805;28;25104;-79
2022/11/21 12:19:34;;;;;;;10.98;2.20;;;9.80;99.90;;;;;;4980373;28;25089;-78
2022/11/21 12:22:02;;;;;;;5.95;1.80;;;9.70;99.90;;;;;;4985186;28;25109;-77
2022/11/21 12:24:27;;;;;;;8.27;2.30;;;9.60;99.90;;;;;;4984717;28;25083;-77
2022/11/21 12:27:03;;;;;;;7.68;1.90;;;9.40;99.90;;;;;;4995009;28;25087;-78
2022/11/21 12:29:59;;;;;;;14.77;2.80;;;9.40;99.90;;;;;;4982815;28;25076;-79
2022/11/21 12:32:46;;;;;;;13.00;2.42;;;9.50;99.90;;;;;;4987474;28;25109;-78
2022/11/21 12:35:38;;;;;;;7.18;1.70;;;9.50;99.90;;;;;;4996703;28;25136;-80
2022/11/21 12:38:35;;;;;;;5.90;2.33;;;9.50;99.90;;;;;;4989422;28;25108;-78
2022/11/21 12:44:24;;;;;;;3.55;1.67;;;9.70;99.90;;;;;;4981100;28;25122;-79
2022/11/21 12:46:52;;;;;;;5.00;1.70;;;9.70;99.90;;;;;;4982549;28;25074;-76
2022/11/21 12:55:39;;;;;;;4.47;2.08;;;9.50;99.90;;;;;;4994453;28;25116;-77
2022/11/21 12:58:43;;;;;;;5.57;2.10;;;9.50;99.90;;;;;;4988604;28;25107;-77
2022/11/21 13:01:24;;;;;;;8.45;2.20;;;9.50;99.90;;;;;;4949494;28;25056;-77
2022/11/21 13:04:19;;;;;;;9.45;2.97;;;9.50;99.90;;;;;;4973450;28;25077;-76
2022/11/21 13:06:47;;;;;;;9.35;2.10;;;9.40;99.90;;;;;;4985745;28;25076;-78
2022/11/21 13:09:17;;;;;;;7.60;1.75;;;9.40;99.90;;;;;;4983682;28;25128;-78
2022/11/21 13:12:00;;;;;;;7.20;2.20;;;9.30;99.90;;;;;;4987691;28;25129;-78
2022/11/21 13:14:47;;;;;;;7.03;2.03;;;9.30;99.90;;;;;;4981269;28;25097;-77